sensor_id;sensor_type;location;lat;lon;timestamp;pressure;altitude;pressure_sealevel;temperature;humidity
68822;BME280;55834;50.870;4.606;2023-02-22T00:01:13;100815.38;;;5.94;57.27
68822;BME280;55834;50.870;4.606;2023-02-22T00:03:57;100825.06;;;5.88;58.64
68822;BME280;55834;50.870;4.606;2023-02-22T00:06:23;100814.63;;;5.82;57.60
68822;BME280;55834;50.870;4.606;2023-02-22T00:08:49;100811.13;;;5.80;58.09
68822;BME280;55834;50.870;4.606;2023-02-22T00:11:17;100816.31;;;5.86;58.81
68822;BME280;55834;50.870;4.606;2023-02-22T00:13:43;100815.41;;;5.91;58.44
68822;BME280;55834;50.870;4.606;2023-02-22T00:16:13;100815.38;;;5.94;58.33
68822;BME280;55834;50.870;4.606;2023-02-22T00:18:38;100807.56;;;5.87;57.76
68822;BME280;55834;50.870;4.606;2023-02-22T00:21:04;100808.50;;;5.82;58.39
68822;BME280;55834;50.870;4.606;2023-02-22T00:23:35;100807.66;;;5.78;58.17
68822;BME280;55834;50.870;4.606;2023-02-22T00:26:05;100805.91;;;5.76;58.31
68822;BME280;55834;50.870;4.606;2023-02-22T00:28:35;100808.56;;;5.73;58.41
68822;BME280;55834;50.870;4.606;2023-02-22T00:31:01;100817.34;;;5.64;58.11
68822;BME280;55834;50.870;4.606;2023-02-22T00:33:26;100811.38;;;5.48;58.15
68822;BME280;55834;50.870;4.606;2023-02-22T00:35:51;100806.03;;;5.60;59.39
68822;BME280;55834;50.870;4.606;2023-02-22T00:38:18;100811.28;;;5.62;58.48
68822;BME280;55834;50.870;4.606;2023-02-22T00:40:43;100814.75;;;5.62;58.83
68822;BME280;55834;50.870;4.606;2023-02-22T00:43:09;100808.63;;;5.65;59.11
68822;BME280;55834;50.870;4.606;2023-02-22T00:45:36;100813.16;;;5.40;59.13
68822;BME280;55834;50.870;4.606;2023-02-22T00:48:03;100815.81;;;5.29;59.02
68822;BME280;55834;50.870;4.606;2023-02-22T00:50:30;100806.97;;;5.52;60.44
68822;BME280;55834;50.870;4.606;2023-02-22T00:52:57;100812.09;;;5.67;59.45
68822;BME280;55834;50.870;4.606;2023-02-22T00:55:26;100803.31;;;5.74;58.77
68822;BME280;55834;50.870;4.606;2023-02-22T00:57:53;100795.44;;;5.76;58.11
68822;BME280;55834;50.870;4.606;2023-02-22T01:02:50;100784.16;;;5.69;57.94
68822;BME280;55834;50.870;4.606;2023-02-22T01:05:19;100781.56;;;5.61;57.91
68822;BME280;55834;50.870;4.606;2023-02-22T01:07:45;100778.91;;;5.68;58.35
68822;BME280;55834;50.870;4.606;2023-02-22T01:10:12;100780.63;;;5.72;58.06
68822;BME280;55834;50.870;4.606;2023-02-22T01:12:37;100778.00;;;5.75;57.43
68822;BME280;55834;50.870;4.606;2023-02-22T01:15:05;100768.38;;;5.75;57.32
68822;BME280;55834;50.870;4.606;2023-02-22T01:17:34;100767.50;;;5.75;57.50
68822;BME280;55834;50.870;4.606;2023-02-22T01:20:00;100764.88;;;5.78;57.53
68822;BME280;55834;50.870;4.606;2023-02-22T01:22:25;100769.19;;;5.82;57.23
68822;BME280;55834;50.870;4.606;2023-02-22T01:24:52;100760.47;;;5.83;57.15
68822;BME280;55834;50.870;4.606;2023-02-22T01:27:19;100756.16;;;5.77;57.04
68822;BME280;55834;50.870;4.606;2023-02-22T01:29:47;100764.94;;;5.69;57.15
68822;BME280;55834;50.870;4.606;2023-02-22T01:32:14;100758.84;;;5.68;57.14
68822;BME280;55834;50.870;4.606;2023-02-22T01:34:39;100753.63;;;5.65;56.58
68822;BME280;55834;50.870;4.606;2023-02-22T01:37:05;100756.28;;;5.60;56.67
68822;BME280;55834;50.870;4.606;2023-02-22T01:39:31;100758.88;;;5.63;57.22
68822;BME280;55834;50.870;4.606;2023-02-22T01:41:57;100753.66;;;5.60;56.64
68822;BME280;55834;50.870;4.606;2023-02-22T01:44:31;100746.72;;;5.52;56.74
68822;BME280;55834;50.870;4.606;2023-02-22T01:46:59;100745.00;;;5.51;57.09
68822;BME280;55834;50.870;4.606;2023-02-22T01:49:30;100743.25;;;5.50;57.19
68822;BME280;55834;50.870;4.606;2023-02-22T01:52:00;100740.75;;;5.33;57.08
68822;BME280;55834;50.870;4.606;2023-02-22T01:54:36;100737.19;;;5.43;56.78
68822;BME280;55834;50.870;4.606;2023-02-22T01:57:30;100731.97;;;5.43;56.69
68822;BME280;55834;50.870;4.606;2023-02-22T02:00:04;100730.19;;;5.43;56.66
68822;BME280;55834;50.870;4.606;2023-02-22T02:02:41;100729.34;;;5.45;56.29
68822;BME280;55834;50.870;4.606;2023-02-22T02:05:08;100729.34;;;5.45;55.89
68822;BME280;55834;50.870;4.606;2023-02-22T02:07:37;100725.09;;;5.28;55.59
68822;BME280;55834;50.870;4.606;2023-02-22T02:10:09;100729.50;;;5.20;56.29
68822;BME280;55834;50.870;4.606;2023-02-22T02:12:40;100725.13;;;5.22;56.68
68822;BME280;55834;50.870;4.606;2023-02-22T02:15:17;100717.25;;;5.25;56.28
68822;BME280;55834;50.870;4.606;2023-02-22T02:17:43;100712.00;;;5.28;56.19
68822;BME280;55834;50.870;4.606;2023-02-22T02:20:17;100717.19;;;5.30;55.78
68822;BME280;55834;50.870;4.606;2023-02-22T02:22:52;100706.75;;;5.28;55.69
68822;BME280;55834;50.870;4.606;2023-02-22T02:31:38;100704.34;;;4.91;56.15
68822;BME280;55834;50.870;4.606;2023-02-22T02:34:49;100707.88;;;4.80;57.79
68822;BME280;55834;50.870;4.606;2023-02-22T02:37:33;100691.25;;;4.96;57.27
68822;BME280;55834;50.870;4.606;2023-02-22T02:48:14;100680.66;;;5.17;55.74
68822;BME280;55834;50.870;4.606;2023-02-22T02:50:47;100671.91;;;5.20;55.88
68822;BME280;55834;50.870;4.606;2023-02-22T02:53:17;100670.16;;;5.20;55.66
68822;BME280;55834;50.870;4.606;2023-02-22T02:55:45;100671.06;;;5.16;55.75
68822;BME280;55834;50.870;4.606;2023-02-22T02:58:21;100668.44;;;5.15;55.83
68822;BME280;55834;50.870;4.606;2023-02-22T03:00:48;100668.50;;;5.03;54.91
68822;BME280;55834;50.870;4.606;2023-02-22T03:04:19;100665.03;;;5.02;56.50
68822;BME280;55834;50.870;4.606;2023-02-22T03:17:22;100647.56;;;5.03;55.69
68822;BME280;55834;50.870;4.606;2023-02-22T03:19:57;100645.88;;;4.92;55.70
68822;BME280;55834;50.870;4.606;2023-02-22T03:22:32;100641.59;;;4.82;56.57
68822;BME280;55834;50.870;4.606;2023-02-22T03:25:04;100642.44;;;4.90;56.33
68822;BME280;55834;50.870;4.606;2023-02-22T03:27:47;100633.72;;;4.90;55.88
68822;BME280;55834;50.870;4.606;2023-02-22T03:32:58;100629.38;;;4.87;56.01
68822;BME280;55834;50.870;4.606;2023-02-22T03:35:27;100629.34;;;4.89;55.72
68822;BME280;55834;50.870;4.606;2023-02-22T03:37:57;100615.41;;;4.88;55.53
68822;BME280;55834;50.870;4.606;2023-02-22T03:40:35;100626.91;;;4.64;54.50
68822;BME280;55834;50.870;4.606;2023-02-22T03:43:09;100622.53;;;4.69;55.91
68822;BME280;55834;50.870;4.606;2023-02-22T03:45:39;100619.03;;;4.63;56.07
68822;BME280;55834;50.870;4.606;2023-02-22T03:48:15;100613.97;;;4.34;55.96
68822;BME280;55834;50.870;4.606;2023-02-22T03:50:43;100614.81;;;4.37;57.28
68822;BME280;55834;50.870;4.606;2023-02-22T03:53:08;100609.59;;;4.37;55.98
68822;BME280;55834;50.870;4.606;2023-02-22T03:55:34;100599.13;;;4.46;56.79
68822;BME280;55834;50.870;4.606;2023-02-22T03:58:04;100603.41;;;4.58;56.20
68822;BME280;55834;50.870;4.606;2023-02-22T04:00:32;100596.41;;;4.57;55.68
68822;BME280;55834;50.870;4.606;2023-02-22T04:02:59;100602.56;;;4.53;55.52
68822;BME280;55834;50.870;4.606;2023-02-22T04:05:24;100599.97;;;4.47;55.59
68822;BME280;55834;50.870;4.606;2023-02-22T04:07:55;100588.75;;;4.25;54.94
68822;BME280;55834;50.870;4.606;2023-02-22T04:10:22;100595.78;;;4.11;56.58
68822;BME280;55834;50.870;4.606;2023-02-22T04:12:48;100596.63;;;4.20;56.16
68822;BME280;55834;50.870;4.606;2023-02-22T04:15:20;100590.44;;;4.37;56.96
68822;BME280;55834;50.870;4.606;2023-02-22T04:17:45;100595.59;;;4.49;56.17
68822;BME280;55834;50.870;4.606;2023-02-22T04:20:11;100581.63;;;4.53;55.92
68822;BME280;55834;50.870;4.606;2023-02-22T04:22:38;100575.53;;;4.56;55.43
68822;BME280;55834;50.870;4.606;2023-02-22T04:25:04;100574.63;;;4.60;55.69
68822;BME280;55834;50.870;4.606;2023-02-22T04:27:29;100576.38;;;4.54;55.35
68822;BME280;55834;50.870;4.606;2023-02-22T04:29:55;100577.28;;;4.53;54.99
68822;BME280;55834;50.870;4.606;2023-02-22T04:32:20;100572.09;;;4.47;54.68
68822;BME280;55834;50.870;4.606;2023-02-22T04:34:45;100569.47;;;4.43;54.58
68822;BME280;55834;50.870;4.606;2023-02-22T04:37:10;100558.22;;;4.35;54.96
68822;BME280;55834;50.870;4.606;2023-02-22T04:39:37;100565.28;;;4.11;55.53
68822;BME280;55834;50.870;4.606;2023-02-22T04:42:02;100565.25;;;4.23;56.49
68822;BME280;55834;50.870;4.606;2023-02-22T04:44:30;100552.16;;;4.26;55.21
68822;BME280;55834;50.870;4.606;2023-02-22T04:46:56;100561.75;;;4.26;54.62
68822;BME280;55834;50.870;4.606;2023-02-22T04:49:21;100555.59;;;4.31;55.79
68822;BME280;55834;50.870;4.606;2023-02-22T04:51:47;100548.59;;;4.37;55.47
68822;BME280;55834;50.870;4.606;2023-02-22T04:54:12;100544.25;;;4.37;55.29
68822;BME280;55834;50.870;4.606;2023-02-22T04:56:38;100545.13;;;4.39;55.50
68822;BME280;55834;50.870;4.606;2023-02-22T04:59:03;100538.16;;;4.38;55.27
68822;BME280;55834;50.870;4.606;2023-02-22T05:01:33;100540.88;;;4.21;55.31
68822;BME280;55834;50.870;4.606;2023-02-22T05:04:03;100540.84;;;4.24;55.65
68822;BME280;55834;50.870;4.606;2023-02-22T05:06:29;100551.31;;;4.17;55.61
68822;BME280;55834;50.870;4.606;2023-02-22T05:08:55;100543.50;;;4.17;55.37
68822;BME280;55834;50.870;4.606;2023-02-22T05:11:20;100531.25;;;4.26;56.17
68822;BME280;55834;50.870;4.606;2023-02-22T05:13:46;100533.00;;;4.23;55.31
68822;BME280;55834;50.870;4.606;2023-02-22T05:16:11;100533.81;;;4.31;56.14
68822;BME280;55834;50.870;4.606;2023-02-22T05:18:37;100530.31;;;4.37;55.62
68822;BME280;55834;50.870;4.606;2023-02-22T05:21:03;100527.69;;;4.37;55.00
68822;BME280;55834;50.870;4.606;2023-02-22T05:23:28;100528.63;;;4.29;55.34
68822;BME280;55834;50.870;4.606;2023-02-22T05:25:53;100528.59;;;4.33;55.93
68822;BME280;55834;50.870;4.606;2023-02-22T05:28:19;100520.81;;;4.26;55.24
68822;BME280;55834;50.870;4.606;2023-02-22T05:30:44;100526.03;;;4.26;55.35
68822;BME280;55834;50.870;4.606;2023-02-22T05:33:10;100515.59;;;4.26;55.28
68822;BME280;55834;50.870;4.606;2023-02-22T05:35:36;100510.31;;;4.33;55.03
68822;BME280;55834;50.870;4.606;2023-02-22T05:38:02;100522.59;;;4.17;54.67
68822;BME280;55834;50.870;4.606;2023-02-22T05:40:29;100520.00;;;4.14;55.32
68822;BME280;55834;50.870;4.606;2023-02-22T05:42:55;100513.00;;;4.20;55.54
68822;BME280;55834;50.870;4.606;2023-02-22T05:45:24;100515.69;;;4.03;54.64
68822;BME280;55834;50.870;4.606;2023-02-22T05:47:50;100522.66;;;4.04;56.17
68822;BME280;55834;50.870;4.606;2023-02-22T05:50:15;100507.81;;;4.11;55.66
68822;BME280;55834;50.870;4.606;2023-02-22T05:52:41;100513.06;;;4.06;55.89
68822;BME280;55834;50.870;4.606;2023-02-22T05:55:08;100515.63;;;4.14;55.49
68822;BME280;55834;50.870;4.606;2023-02-22T05:57:34;100507.78;;;4.20;55.64
68822;BME280;55834;50.870;4.606;2023-02-22T05:59:59;100507.75;;;4.23;55.06
68822;BME280;55834;50.870;4.606;2023-02-22T06:02:25;100499.97;;;4.13;54.78
68822;BME280;55834;50.870;4.606;2023-02-22T06:04:50;100500.03;;;3.99;55.86
68822;BME280;55834;50.870;4.606;2023-02-22T06:07:16;100502.63;;;4.02;55.40
68822;BME280;55834;50.870;4.606;2023-02-22T06:09:41;100500.84;;;4.10;55.99
68822;BME280;55834;50.870;4.606;2023-02-22T06:12:07;100501.75;;;4.07;55.66
68822;BME280;55834;50.870;4.606;2023-02-22T06:14:33;100509.59;;;4.09;55.86
68822;BME280;55834;50.870;4.606;2023-02-22T06:16:59;100506.94;;;4.11;55.88
68822;BME280;55834;50.870;4.606;2023-02-22T06:19:25;100493.00;;;4.15;55.85
68822;BME280;55834;50.870;4.606;2023-02-22T06:21:52;100477.25;;;4.22;55.28
68822;BME280;55834;50.870;4.606;2023-02-22T06:24:18;100479.00;;;4.25;55.44
68822;BME280;55834;50.870;4.606;2023-02-22T06:26:43;100482.53;;;4.16;55.07
68822;BME280;55834;50.870;4.606;2023-02-22T06:29:08;100494.91;;;3.80;55.15
68822;BME280;55834;50.870;4.606;2023-02-22T06:31:34;100500.94;;;3.90;56.66
68822;BME280;55834;50.870;4.606;2023-02-22T06:33:59;100493.94;;;3.98;56.46
68822;BME280;55834;50.870;4.606;2023-02-22T06:36:25;100479.09;;;4.08;56.09
68822;BME280;55834;50.870;4.606;2023-02-22T06:38:50;100483.41;;;4.15;56.01
68822;BME280;55834;50.870;4.606;2023-02-22T06:41:15;100481.66;;;4.16;55.62
68822;BME280;55834;50.870;4.606;2023-02-22T06:43:42;100479.91;;;4.18;55.57
68822;BME280;55834;50.870;4.606;2023-02-22T06:46:11;100488.75;;;3.94;54.73
68822;BME280;55834;50.870;4.606;2023-02-22T06:48:37;100485.28;;;3.90;56.16
68822;BME280;55834;50.870;4.606;2023-02-22T06:51:06;100479.16;;;3.91;56.74
68822;BME280;55834;50.870;4.606;2023-02-22T06:53:32;100482.63;;;3.99;55.99
68822;BME280;55834;50.870;4.606;2023-02-22T06:55:58;100485.22;;;3.99;55.16
68822;BME280;55834;50.870;4.606;2023-02-22T06:58:23;100509.00;;;3.01;57.14
68822;BME280;55834;50.870;4.606;2023-02-22T07:00:48;100514.22;;;3.26;59.12
68822;BME280;55834;50.870;4.606;2023-02-22T07:03:14;100501.09;;;3.59;58.83
68822;BME280;55834;50.870;4.606;2023-02-22T07:05:40;100505.31;;;3.85;57.68
68822;BME280;55834;50.870;4.606;2023-02-22T07:08:06;100500.91;;;4.01;56.51
68822;BME280;55834;50.870;4.606;2023-02-22T07:10:33;100500.00;;;4.10;56.39
68822;BME280;55834;50.870;4.606;2023-02-22T07:12:59;100498.22;;;4.18;55.39
68822;BME280;55834;50.870;4.606;2023-02-22T07:15:26;100489.47;;;4.23;55.19
68822;BME280;55834;50.870;4.606;2023-02-22T07:17:52;100492.06;;;4.26;54.92
68822;BME280;55834;50.870;4.606;2023-02-22T07:20:18;100491.19;;;4.29;55.00
68822;BME280;55834;50.870;4.606;2023-02-22T07:22:45;100486.81;;;4.28;54.86
68822;BME280;55834;50.870;4.606;2023-02-22T07:25:11;100483.31;;;4.32;55.08
68822;BME280;55834;50.870;4.606;2023-02-22T07:27:38;100487.63;;;4.36;54.47
68822;BME280;55834;50.870;4.606;2023-02-22T07:30:09;100478.91;;;4.37;54.65
68822;BME280;55834;50.870;4.606;2023-02-22T07:32:41;100484.09;;;4.40;54.67
68822;BME280;55834;50.870;4.606;2023-02-22T07:35:13;100493.78;;;4.27;54.78
68822;BME280;55834;50.870;4.606;2023-02-22T07:37:38;100502.50;;;4.25;54.92
68822;BME280;55834;50.870;4.606;2023-02-22T07:40:04;100499.91;;;4.26;55.38
68822;BME280;55834;50.870;4.606;2023-02-22T07:42:30;100496.34;;;4.35;55.42
68822;BME280;55834;50.870;4.606;2023-02-22T07:44:55;100488.47;;;4.41;55.46
68822;BME280;55834;50.870;4.606;2023-02-22T07:47:20;100490.16;;;4.50;55.48
68822;BME280;55834;50.870;4.606;2023-02-22T07:49:45;100487.47;;;4.58;55.50
68822;BME280;55834;50.870;4.606;2023-02-22T07:52:11;100481.28;;;4.68;55.30
68822;BME280;55834;50.870;4.606;2023-02-22T07:54:36;100478.59;;;4.79;55.27
68822;BME280;55834;50.870;4.606;2023-02-22T07:57:02;100475.03;;;4.86;55.36
68822;BME280;55834;50.870;4.606;2023-02-22T07:59:27;100474.09;;;4.96;55.34
68822;BME280;55834;50.870;4.606;2023-02-22T08:01:52;100474.06;;;4.94;55.45
68822;BME280;55834;50.870;4.606;2023-02-22T08:04:18;100479.84;;;4.25;55.17
68822;BME280;55834;50.870;4.606;2023-02-22T08:06:43;100488.63;;;4.17;57.51
68822;BME280;55834;50.870;4.606;2023-02-22T08:09:10;100475.31;;;4.50;58.42
68822;BME280;55834;50.870;4.606;2023-02-22T08:11:36;100482.19;;;4.65;57.11
68822;BME280;55834;50.870;4.606;2023-02-22T08:14:01;100492.47;;;4.87;56.61
68822;BME280;55834;50.870;4.606;2023-02-22T08:16:26;100494.06;;;5.05;56.74
68822;BME280;55834;50.870;4.606;2023-02-22T08:18:51;100482.66;;;5.13;56.00
68822;BME280;55834;50.870;4.606;2023-02-22T08:21:17;100482.59;;;5.19;55.51
68822;BME280;55834;50.870;4.606;2023-02-22T08:23:42;100486.19;;;5.11;55.12
68822;BME280;55834;50.870;4.606;2023-02-22T08:26:09;100486.03;;;5.23;56.05
68822;BME280;55834;50.870;4.606;2023-02-22T08:28:39;100479.19;;;5.13;56.11
68822;BME280;55834;50.870;4.606;2023-02-22T08:31:05;100479.03;;;5.27;56.86
68822;BME280;55834;50.870;4.606;2023-02-22T08:33:32;100486.00;;;5.28;56.57
68822;BME280;55834;50.870;4.606;2023-02-22T08:35:59;100477.97;;;5.43;57.04
68822;BME280;55834;50.870;4.606;2023-02-22T08:38:28;100473.41;;;5.59;56.59
68822;BME280;55834;50.870;4.606;2023-02-22T08:40:54;100473.41;;;5.60;55.93
68822;BME280;55834;50.870;4.606;2023-02-22T08:43:20;100466.34;;;5.67;56.48
68822;BME280;55834;50.870;4.606;2023-02-22T08:45:46;100465.25;;;5.83;56.89
68822;BME280;55834;50.870;4.606;2023-02-22T08:48:13;100470.59;;;5.77;56.23
68822;BME280;55834;50.870;4.606;2023-02-22T08:50:39;100471.59;;;5.65;56.91
68822;BME280;55834;50.870;4.606;2023-02-22T08:53:06;100475.16;;;5.58;57.19
68822;BME280;55834;50.870;4.606;2023-02-22T08:55:35;100476.47;;;5.95;58.36
68822;BME280;55834;50.870;4.606;2023-02-22T08:58:03;100475.22;;;6.22;58.00
68822;BME280;55834;50.870;4.606;2023-02-22T09:00:31;100471.44;;;6.40;57.80
68822;BME280;55834;50.870;4.606;2023-02-22T09:03:01;100466.78;;;6.59;56.92
68822;BME280;55834;50.870;4.606;2023-02-22T09:05:28;100468.31;;;6.75;57.40
68822;BME280;55834;50.870;4.606;2023-02-22T09:07:53;100476.19;;;6.73;56.28
68822;BME280;55834;50.870;4.606;2023-02-22T09:10:22;100468.94;;;6.88;56.93
68822;BME280;55834;50.870;4.606;2023-02-22T09:12:52;100473.44;;;6.81;57.21
68822;BME280;55834;50.870;4.606;2023-02-22T09:15:20;100463.53;;;6.98;57.42
68822;BME280;55834;50.870;4.606;2023-02-22T09:17:46;100462.44;;;7.09;56.54
68822;BME280;55834;50.870;4.606;2023-02-22T09:20:12;100463.13;;;7.20;56.43
68822;BME280;55834;50.870;4.606;2023-02-22T09:22:38;100456.03;;;7.23;56.34
68822;BME280;55834;50.870;4.606;2023-02-22T09:25:05;100451.56;;;7.29;56.45
68822;BME280;55834;50.870;4.606;2023-02-22T09:27:31;100459.31;;;7.35;56.63
68822;BME280;55834;50.870;4.606;2023-02-22T09:29:56;100459.25;;;7.38;56.63
68822;BME280;55834;50.870;4.606;2023-02-22T09:32:23;100455.91;;;7.31;56.65
68822;BME280;55834;50.870;4.606;2023-02-22T09:34:52;100455.13;;;7.26;56.85
68822;BME280;55834;50.870;4.606;2023-02-22T09:37:18;100460.28;;;7.31;56.67
68822;BME280;55834;50.870;4.606;2023-02-22T09:39:44;100468.09;;;7.34;56.39
68822;BME280;55834;50.870;4.606;2023-02-22T09:47:15;100478.47;;;6.93;57.75
68822;BME280;55834;50.870;4.606;2023-02-22T09:52:31;100475.00;;;6.93;58.15
68822;BME280;55834;50.870;4.606;2023-02-22T09:57:35;100473.00;;;7.07;57.44
68822;BME280;55834;50.870;4.606;2023-02-22T10:00:21;100474.47;;;7.20;57.05
68822;BME280;55834;50.870;4.606;2023-02-22T10:05:43;100467.13;;;7.39;56.65
68822;BME280;55834;50.870;4.606;2023-02-22T10:08:14;100463.53;;;7.45;56.65
68822;BME280;55834;50.870;4.606;2023-02-22T10:10:42;100466.88;;;7.52;56.34
68822;BME280;55834;50.870;4.606;2023-02-22T10:13:23;100455.38;;;7.59;56.72
68822;BME280;55834;50.870;4.606;2023-02-22T10:19:05;100456.94;;;7.67;56.91
68822;BME280;55834;50.870;4.606;2023-02-22T10:27:29;100466.91;;;7.92;56.03
68822;BME280;55834;50.870;4.606;2023-02-22T10:32:36;100464.91;;;8.03;55.49
68822;BME280;55834;50.870;4.606;2023-02-22T10:35:17;100462.19;;;8.09;55.23
68822;BME280;55834;50.870;4.606;2023-02-22T10:37:44;100469.06;;;8.17;55.55
68822;BME280;55834;50.870;4.606;2023-02-22T10:40:14;100455.75;;;8.23;55.53
68822;BME280;55834;50.870;4.606;2023-02-22T10:42:42;100457.38;;;8.28;55.41
68822;BME280;55834;50.870;4.606;2023-02-22T10:45:29;100465.13;;;8.34;55.40
68822;BME280;55834;50.870;4.606;2023-02-22T10:47:59;100450.91;;;8.42;55.23
68822;BME280;55834;50.870;4.606;2023-02-22T10:50:29;100457.72;;;8.50;55.33
68822;BME280;55834;50.870;4.606;2023-02-22T10:52:56;100460.50;;;8.44;55.04
68822;BME280;55834;50.870;4.606;2023-02-22T10:55:21;100456.06;;;8.46;55.00
68822;BME280;55834;50.870;4.606;2023-02-22T10:57:50;100448.34;;;8.40;54.94
68822;BME280;55834;50.870;4.606;2023-02-22T11:00:27;100449.81;;;8.50;56.02
68822;BME280;55834;50.870;4.606;2023-02-22T11:03:02;100452.97;;;8.65;55.82
68822;BME280;55834;50.870;4.606;2023-02-22T11:05:34;100444.75;;;8.78;55.33
68822;BME280;55834;50.870;4.606;2023-02-22T11:08:24;100445.69;;;8.76;55.10
68822;BME280;55834;50.870;4.606;2023-02-22T11:10:52;100447.44;;;8.75;55.06
68822;BME280;55834;50.870;4.606;2023-02-22T11:15:43;100450.34;;;8.99;55.50
68822;BME280;55834;50.870;4.606;2023-02-22T11:18:22;100442.97;;;9.12;54.86
68822;BME280;55834;50.870;4.606;2023-02-22T11:21:07;100442.66;;;9.24;54.32
68822;BME280;55834;50.870;4.606;2023-02-22T11:23:35;100441.53;;;9.34;54.45
68822;BME280;55834;50.870;4.606;2023-02-22T11:26:07;100450.16;;;9.07;54.46
68822;BME280;55834;50.870;4.606;2023-02-22T11:28:34;100456.19;;;9.10;54.88
68822;BME280;55834;50.870;4.606;2023-02-22T11:31:16;100449.47;;;9.33;55.35
68822;BME280;55834;50.870;4.606;2023-02-22T11:33:52;100445.47;;;9.51;55.00
68822;BME280;55834;50.870;4.606;2023-02-22T11:38:55;100437.94;;;9.66;54.61
68822;BME280;55834;50.870;4.606;2023-02-22T11:41:33;100436.13;;;9.70;54.37
68822;BME280;55834;50.870;4.606;2023-02-22T11:44:26;100438.97;;;9.62;55.00
68822;BME280;55834;50.870;4.606;2023-02-22T11:46:55;100437.28;;;9.60;54.25
68822;BME280;55834;50.870;4.606;2023-02-22T11:49:32;100442.47;;;9.63;54.95
68822;BME280;55834;50.870;4.606;2023-02-22T12:00:47;100438.47;;;9.49;55.96
68822;BME280;55834;50.870;4.606;2023-02-22T12:06:22;100435.84;;;9.79;55.09
68822;BME280;55834;50.870;4.606;2023-02-22T12:09:02;100436.22;;;9.95;54.91
68822;BME280;55834;50.870;4.606;2023-02-22T12:12:17;100436.84;;;10.03;54.54
68822;BME280;55834;50.870;4.606;2023-02-22T12:15:05;100442.00;;;10.08;54.68
68822;BME280;55834;50.870;4.606;2023-02-22T12:18:47;100434.53;;;9.92;54.91
68822;BME280;55834;50.870;4.606;2023-02-22T12:20:45;100429.25;;;9.92;55.77
68822;BME280;55834;50.870;4.606;2023-02-22T12:26:33;100427.69;;;9.57;55.54
68822;BME280;55834;50.870;4.606;2023-02-22T12:28:42;100435.06;;;9.12;56.95
68822;BME280;55834;50.870;4.606;2023-02-22T12:31:31;100433.44;;;9.40;56.90
68822;BME280;55834;50.870;4.606;2023-02-22T12:34:10;100434.69;;;9.88;54.99
68822;BME280;55834;50.870;4.606;2023-02-22T12:36:45;100436.38;;;9.90;54.44
68822;BME280;55834;50.870;4.606;2023-02-22T12:41:54;100435.41;;;10.21;53.68
68822;BME280;55834;50.870;4.606;2023-02-22T12:44:30;100435.16;;;10.01;53.55
68822;BME280;55834;50.870;4.606;2023-02-22T12:46:57;100440.97;;;10.12;54.43
68822;BME280;55834;50.870;4.606;2023-02-22T12:50:08;100440.25;;;10.07;55.16
68822;BME280;55834;50.870;4.606;2023-02-22T12:54:59;100445.88;;;10.24;55.08
68822;BME280;55834;50.870;4.606;2023-02-22T12:57:43;100443.91;;;10.31;53.76
68822;BME280;55834;50.870;4.606;2023-02-22T13:00:25;100437.53;;;9.82;55.61
68822;BME280;55834;50.870;4.606;2023-02-22T13:02:57;100438.72;;;10.00;54.72
68822;BME280;55834;50.870;4.606;2023-02-22T13:05:24;100442.56;;;10.17;54.34
68822;BME280;55834;50.870;4.606;2023-02-22T13:08:10;100437.38;;;10.43;54.20
68822;BME280;55834;50.870;4.606;2023-02-22T13:11:03;100447.69;;;10.50;53.84
68822;BME280;55834;50.870;4.606;2023-02-22T13:13:35;100441.53;;;10.51;53.57
68822;BME280;55834;50.870;4.606;2023-02-22T13:16:15;100444.09;;;10.53;53.38
68822;BME280;55834;50.870;4.606;2023-02-22T13:21:49;100447.75;;;10.21;54.11
68822;BME280;55834;50.870;4.606;2023-02-22T13:24:18;100446.28;;;10.38;54.40
68822;BME280;55834;50.870;4.606;2023-02-22T13:27:09;100437.53;;;10.10;53.89
68822;BME280;55834;50.870;4.606;2023-02-22T13:29:40;100438.63;;;10.03;54.98
68822;BME280;55834;50.870;4.606;2023-02-22T13:32:22;100446.50;;;10.32;54.53
68822;BME280;55834;50.870;4.606;2023-02-22T13:46:15;100443.09;;;10.57;54.12
68822;BME280;55834;50.870;4.606;2023-02-22T13:51:49;100451.59;;;10.65;54.01
68822;BME280;55834;50.870;4.606;2023-02-22T13:57:18;100450.47;;;10.46;54.14
68822;BME280;55834;50.870;4.606;2023-02-22T13:59:44;100450.78;;;10.08;54.66
68822;BME280;55834;50.870;4.606;2023-02-22T14:02:32;100444.97;;;10.25;54.61
68822;BME280;55834;50.870;4.606;2023-02-22T14:05:36;100447.13;;;10.12;54.16
68822;BME280;55834;50.870;4.606;2023-02-22T14:13:08;100453.69;;;9.99;55.25
68822;BME280;55834;50.870;4.606;2023-02-22T14:15:35;100449.44;;;9.64;56.73
68822;BME280;55834;50.870;4.606;2023-02-22T14:18:03;100451.75;;;9.76;55.88
68822;BME280;55834;50.870;4.606;2023-02-22T14:23:37;100458.84;;;9.72;56.88
68822;BME280;55834;50.870;4.606;2023-02-22T14:31:30;100455.97;;;10.10;55.31
68822;BME280;55834;50.870;4.606;2023-02-22T14:34:18;100455.78;;;10.16;55.35
68822;BME280;55834;50.870;4.606;2023-02-22T14:37:18;100463.69;;;10.16;54.83
68822;BME280;55834;50.870;4.606;2023-02-22T14:39:51;100468.97;;;9.88;56.09
68822;BME280;55834;50.870;4.606;2023-02-22T14:47:28;100472.50;;;8.92;57.93
68822;BME280;55834;50.870;4.606;2023-02-22T14:50:06;100470.56;;;8.98;57.94
68822;BME280;55834;50.870;4.606;2023-02-22T14:52:36;100467.94;;;9.33;56.69
68822;BME280;55834;50.870;4.606;2023-02-22T14:55:23;100476.44;;;9.08;58.36
68822;BME280;55834;50.870;4.606;2023-02-22T15:00:41;100473.78;;;9.42;57.20
68822;BME280;55834;50.870;4.606;2023-02-22T15:03:36;100460.63;;;8.74;59.02
68822;BME280;55834;50.870;4.606;2023-02-22T15:06:06;100464.13;;;8.00;60.32
68822;BME280;55834;50.870;4.606;2023-02-22T15:08:39;100462.16;;;8.82;58.64
68822;BME280;55834;50.870;4.606;2023-02-22T15:11:18;100451.66;;;9.49;57.16
68822;BME280;55834;50.870;4.606;2023-02-22T15:13:49;100460.44;;;8.81;57.98
68822;BME280;55834;50.870;4.606;2023-02-22T15:16:16;100458.56;;;8.52;58.80
68822;BME280;55834;50.870;4.606;2023-02-22T15:18:44;100451.44;;;9.23;58.06